KLVM/LVM METAR and TAF weather

Enter ICAO airport designator
Station Type Date Time Source
KLVM METAR 2020/04/08 19:53 UTC NOAA

KLVM 081953Z AUTO 33006KT 10SM CLR 12/M04 A3015 RMK AO2 SLP210 T01221044


Station Type Date Time Source
KLVM Decoded METAR 2020/04/08 19:53 UTC NOAA

LIVINGSTON MISSION FIELD, MT, United States (KLVM) 45-42N 110-26W 1418M
Apr 08, 2020 - 03:53 PM EDT / 2020.04.08 1953 UTC
Wind: from the NNW (330 degrees) at 7 MPH (6 KT):0
Visibility: 10 mile(s):0
Sky conditions: clear
Temperature: 54.0 F (12.2 C)
Dew Point: 24.1 F (-4.4 C)
Relative Humidity: 31%
Pressure (altimeter): 30.15 in. Hg (1020 hPa)
ob: KLVM 081953Z AUTO 33006KT 10SM CLR 12/M04 A3015 RMK AO2 SLP210 T01221044
cycle: 20

Station Type Date Time Source
KLVM TAF 2020/04/08 18:24 UTC NOAA

TAF KLVM 081722Z 0818/0918 08006KT P6SM FEW200
FM082100 32011KT P6SM FEW060
FM090200 08007KT P6SM FEW120
FM091000 VRB04KT P6SM SKC

Example: see airport list